Terminal Aerodrome Forecast
Issued by NWS

Current Version | Previous Version | Graphics & Text | Print | Product List | Glossary On
Versions: 1 2 3 4 5 6 7 8 9 10 11 12 13 14 15 16 17 18 19 20 21
661
FTUS41 KILN 281857 AAB
TAFLUK
TAF AMD
KLUK 281857Z 2819/2918 35009KT P6SM BKN019 OVC027
     FM282100 36007KT P6SM OVC025
     FM290600 03004KT P6SM OVC018
     FM291400 05005KT P6SM OVC020
     FM291700 06005KT P6SM BKN035=

USA.gov is the U.S. government's official web portal to all federal, state and local government web resources and services.